Time;durP1;ratioP1;P1;durP2;ratioP2;P2;SDS_P1;SDS_P2;PMS_P1;PMS_P2;Temp;Humidity;BMP_temperature;BMP_pressure;BME280_temperature;BME280_humidity;BME280_pressure;Samples;Min_cycle;Max_cycle;Signal;HPM_P1;HPM_P2
2022/05/04 00:02:04;;;;;;;6.40;4.60;;;14.30;99.90;;;;;;5037156;28;20512;-47
2022/05/04 00:04:31;;;;;;;7.07;4.80;;;14.30;99.90;;;;;;5036738;28;20448;-42
2022/05/04 00:06:57;;;;;;;6.87;4.33;;;14.20;99.90;;;;;;5036806;28;20443;-41
2022/05/04 00:09:24;;;;;;;5.43;4.40;;;14.20;99.90;;;;;;5036728;28;20913;-42
2022/05/04 00:11:51;;;;;;;10.90;5.70;;;14.10;99.90;;;;;;5036858;28;20485;-40
2022/05/04 00:14:19;;;;;;;7.77;4.10;;;14.00;99.90;;;;;;5036970;28;20495;-44
2022/05/04 00:16:49;;;;;;;5.40;4.73;;;14.00;99.90;;;;;;5036531;28;20541;-43
2022/05/04 00:19:15;;;;;;;5.10;3.90;;;14.00;99.90;;;;;;5036774;28;20468;-43
2022/05/04 00:21:42;;;;;;;5.80;4.23;;;14.00;99.90;;;;;;5036466;28;20483;-41
2022/05/04 00:24:09;;;;;;;6.03;4.53;;;14.00;99.90;;;;;;5036832;28;20472;-43
2022/05/04 00:26:36;;;;;;;6.67;3.77;;;14.00;99.90;;;;;;5036749;28;21115;-45
2022/05/04 00:29:02;;;;;;;7.20;4.83;;;13.90;99.90;;;;;;5036511;28;20519;-43
2022/05/04 00:31:34;;;;;;;4.83;4.10;;;13.90;99.90;;;;;;5036368;28;20452;-40
2022/05/04 00:34:07;;;;;;;8.47;4.57;;;13.90;99.90;;;;;;5036004;28;20574;-41
2022/05/04 00:36:34;;;;;;;5.83;4.30;;;13.90;99.90;;;;;;5036344;28;20531;-41
2022/05/04 00:39:00;;;;;;;6.10;4.57;;;13.90;99.90;;;;;;5036486;28;20537;-46
2022/05/04 00:41:27;;;;;;;4.87;4.03;;;13.80;99.90;;;;;;5036250;28;20913;-43
2022/05/04 00:43:55;;;;;;;9.00;5.20;;;13.80;99.90;;;;;;5036333;28;20531;-39
2022/05/04 00:46:23;;;;;;;4.50;3.53;;;13.70;99.90;;;;;;5036503;28;20506;-41
2022/05/04 00:48:51;;;;;;;6.83;5.07;;;13.70;99.90;;;;;;5036302;28;20510;-45
2022/05/04 00:51:18;;;;;;;5.83;5.10;;;13.70;99.90;;;;;;5036029;28;20448;-40
2022/05/04 00:53:46;;;;;;;5.70;4.37;;;13.70;99.90;;;;;;5035957;28;20491;-43
2022/05/04 00:56:13;;;;;;;6.30;4.00;;;13.60;99.90;;;;;;5036349;28;20513;-42
2022/05/04 00:58:58;;;;;;;7.20;4.13;;;13.60;99.90;;;;;;5036222;28;20444;-41
2022/05/04 01:01:26;;;;;;;8.77;5.00;;;13.50;99.90;;;;;;5035719;28;20487;-41
2022/05/04 01:03:55;;;;;;;7.90;4.50;;;13.50;99.90;;;;;;5035755;28;20996;-45
2022/05/04 01:06:21;;;;;;;5.27;4.47;;;13.50;99.90;;;;;;5035879;28;20472;-40
2022/05/04 01:08:50;;;;;;;5.90;4.67;;;13.40;99.90;;;;;;5035643;28;20510;-41
2022/05/04 01:11:17;;;;;;;8.53;4.80;;;13.40;99.90;;;;;;5035412;28;20974;-41
2022/05/04 01:13:44;;;;;;;8.70;4.63;;;13.30;99.90;;;;;;5035525;28;20460;-45
2022/05/04 01:16:11;;;;;;;6.30;4.97;;;13.30;99.90;;;;;;5035794;28;20506;-44
2022/05/04 01:18:38;;;;;;;7.93;5.50;;;13.20;99.90;;;;;;5035466;28;20479;-44
2022/05/04 01:21:06;;;;;;;7.53;4.47;;;13.10;99.90;;;;;;5035420;28;20460;-44
2022/05/04 01:23:35;;;;;;;7.63;5.60;;;13.10;99.90;;;;;;5035365;28;20479;-43
2022/05/04 01:26:02;;;;;;;9.60;4.77;;;13.00;99.90;;;;;;5035323;28;20589;-41
2022/05/04 01:28:28;;;;;;;7.67;5.37;;;13.00;99.90;;;;;;5035374;28;20472;-41
2022/05/04 01:30:55;;;;;;;14.00;5.50;;;13.00;99.90;;;;;;5035323;28;20931;-44
2022/05/04 01:33:22;;;;;;;9.93;5.37;;;13.00;99.90;;;;;;5035323;28;20480;-48
2022/05/04 01:35:48;;;;;;;8.87;5.00;;;13.00;99.90;;;;;;5035332;28;20479;-44
2022/05/04 01:38:15;;;;;;;7.27;5.30;;;13.00;99.90;;;;;;5035403;28;20452;-45
2022/05/04 01:40:43;;;;;;;7.53;5.20;;;13.00;99.90;;;;;;5035187;28;20476;-40
2022/05/04 01:43:10;;;;;;;9.00;5.70;;;13.00;99.90;;;;;;5035353;28;20510;-43
2022/05/04 01:45:36;;;;;;;7.70;5.50;;;12.90;99.90;;;;;;5034317;28;20472;-47
2022/05/04 01:48:03;;;;;;;7.10;5.37;;;12.90;99.90;;;;;;5034932;28;20456;-42
2022/05/04 01:50:30;;;;;;;8.23;5.50;;;12.90;99.90;;;;;;5035129;28;20472;-41
2022/05/04 01:52:57;;;;;;;13.63;4.93;;;12.80;99.90;;;;;;5035019;28;20487;-43
2022/05/04 01:55:27;;;;;;;7.97;6.03;;;12.70;99.90;;;;;;5035062;28;20463;-40
2022/05/04 01:57:55;;;;;;;6.77;4.70;;;12.70;99.90;;;;;;5034762;28;20498;-42
2022/05/04 02:00:22;;;;;;;7.40;5.30;;;12.60;99.90;;;;;;5035090;28;20786;-42
2022/05/04 02:02:48;;;;;;;8.50;5.30;;;12.60;99.90;;;;;;5034997;28;20476;-42
2022/05/04 02:05:19;;;;;;;8.27;5.20;;;12.60;99.90;;;;;;5034985;28;20492;-45
2022/05/04 02:07:52;;;;;;;11.40;6.17;;;12.60;99.90;;;;;;5034840;28;20484;-42
2022/05/04 02:10:18;;;;;;;6.37;4.87;;;12.60;99.90;;;;;;5034793;28;20433;-42
2022/05/04 02:12:45;;;;;;;7.17;5.37;;;12.50;99.90;;;;;;5034673;28;20537;-45
2022/05/04 02:15:13;;;;;;;7.27;4.73;;;12.40;99.90;;;;;;5034624;28;20428;-48
2022/05/04 02:17:40;;;;;;;6.67;4.87;;;12.40;99.90;;;;;;5034743;28;20464;-40
2022/05/04 02:20:09;;;;;;;16.63;6.27;;;12.40;99.90;;;;;;5034675;28;21378;-40
2022/05/04 02:22:35;;;;;;;7.57;4.93;;;12.40;99.90;;;;;;5034580;28;20911;-44
2022/05/04 02:25:02;;;;;;;9.40;5.87;;;12.30;99.90;;;;;;5034815;28;20448;-41
2022/05/04 02:27:29;;;;;;;7.13;5.20;;;12.10;99.90;;;;;;5034860;28;20463;-44
2022/05/04 02:29:56;;;;;;;6.30;4.83;;;12.10;99.90;;;;;;5034399;28;20476;-45
2022/05/04 02:32:24;;;;;;;9.40;6.90;;;12.00;99.90;;;;;;5034634;28;20479;-43
2022/05/04 02:40:20;;;;;;;6.50;5.27;;;12.00;99.90;;;;;;5034217;28;20533;-40
2022/05/04 02:42:46;;;;;;;9.53;5.30;;;12.00;99.90;;;;;;5034413;28;20518;-43
2022/05/04 02:45:16;;;;;;;9.43;4.70;;;12.00;99.90;;;;;;5034236;28;20487;-47
2022/05/04 02:47:45;;;;;;;7.50;5.60;;;12.00;99.90;;;;;;5034429;28;20486;-43
2022/05/04 02:50:11;;;;;;;10.40;6.10;;;12.00;99.90;;;;;;5034441;28;20444;-41
2022/05/04 02:52:38;;;;;;;7.20;5.20;;;11.90;99.90;;;;;;5034475;28;20549;-44
2022/05/04 02:55:06;;;;;;;7.57;6.47;;;11.90;99.90;;;;;;5034030;28;20948;-46
2022/05/04 02:57:33;;;;;;;8.73;5.80;;;11.90;99.90;;;;;;5037158;28;20472;-43
2022/05/04 03:00:00;;;;;;;9.83;6.60;;;11.90;99.90;;;;;;5038366;28;20443;-41
2022/05/04 03:02:29;;;;;;;7.40;5.50;;;11.90;99.90;;;;;;5038200;28;20447;-43
2022/05/04 03:04:59;;;;;;;7.20;4.93;;;11.90;99.90;;;;;;5038254;28;20451;-41
2022/05/04 03:07:29;;;;;;;18.20;6.50;;;11.90;99.90;;;;;;5040206;28;20475;-42
2022/05/04 03:09:56;;;;;;;7.73;5.23;;;11.90;99.90;;;;;;5040399;28;20448;-41
2022/05/04 03:12:27;;;;;;;7.80;5.80;;;11.90;99.90;;;;;;5039695;28;20455;-43
2022/05/04 03:14:55;;;;;;;7.50;5.33;;;11.90;99.90;;;;;;5042031;28;20492;-44
2022/05/04 03:17:22;;;;;;;7.03;6.00;;;11.90;99.90;;;;;;5042386;28;20552;-40
2022/05/04 03:19:49;;;;;;;8.03;6.17;;;11.90;99.90;;;;;;5041650;28;20499;-40
2022/05/04 03:22:17;;;;;;;10.53;6.50;;;11.90;99.90;;;;;;5041650;28;20451;-38
2022/05/04 03:24:44;;;;;;;11.13;5.67;;;11.90;99.90;;;;;;5041922;28;20488;-41
2022/05/04 03:27:11;;;;;;;8.53;6.00;;;11.90;99.90;;;;;;5042207;28;20865;-43
2022/05/04 03:29:38;;;;;;;13.00;6.20;;;11.90;99.90;;;;;;5041342;28;20456;-43
2022/05/04 03:32:06;;;;;;;9.60;5.97;;;11.90;99.90;;;;;;5041876;28;20897;-42
2022/05/04 03:34:32;;;;;;;15.10;6.17;;;11.90;99.90;;;;;;5041475;28;20487;-42
2022/05/04 03:36:59;;;;;;;10.87;6.73;;;11.90;99.90;;;;;;5041389;28;20464;-43
2022/05/04 03:39:28;;;;;;;9.83;5.97;;;11.90;99.90;;;;;;5041516;28;20439;-48
2022/05/04 03:41:55;;;;;;;9.47;5.53;;;11.90;99.90;;;;;;5040752;28;20510;-42
2022/05/04 03:44:22;;;;;;;12.60;8.33;;;11.90;99.90;;;;;;5041591;28;20443;-45
2022/05/04 03:46:55;;;;;;;9.03;6.20;;;11.90;99.90;;;;;;5040876;28;20844;-50
2022/05/04 03:49:24;;;;;;;8.10;5.97;;;11.90;99.90;;;;;;5041744;28;20440;-39
2022/05/04 03:51:51;;;;;;;11.83;5.77;;;11.90;99.90;;;;;;5041580;28;20451;-47
2022/05/04 03:54:18;;;;;;;6.53;5.80;;;12.00;99.90;;;;;;5040873;28;20488;-44
2022/05/04 03:56:49;;;;;;;7.60;6.00;;;12.00;99.90;;;;;;5041670;28;20454;-43
2022/05/04 03:59:18;;;;;;;8.97;6.03;;;12.00;99.90;;;;;;5041287;28;20486;-42
2022/05/04 04:01:44;;;;;;;8.80;6.40;;;11.90;99.90;;;;;;5041600;28;20472;-42
2022/05/04 04:04:13;;;;;;;14.00;6.73;;;11.90;99.90;;;;;;5040907;28;21021;-42
2022/05/04 04:06:45;;;;;;;9.67;6.43;;;11.90;99.90;;;;;;5041115;28;20448;-43
2022/05/04 04:09:16;;;;;;;9.70;6.53;;;11.90;99.90;;;;;;5039802;28;20432;-44
2022/05/04 04:11:43;;;;;;;9.63;6.43;;;12.00;99.90;;;;;;5041010;28;20458;-47
2022/05/04 04:14:11;;;;;;;12.63;7.07;;;12.00;99.90;;;;;;5041147;28;20492;-45
2022/05/04 04:16:37;;;;;;;6.93;5.80;;;12.00;99.90;;;;;;5041034;28;20452;-40
2022/05/04 04:19:04;;;;;;;7.57;6.20;;;12.10;99.90;;;;;;5041018;28;20444;-43
2022/05/04 04:24:17;;;;;;;10.87;5.93;;;12.10;99.90;;;;;;5040752;28;20462;-42
2022/05/04 04:26:43;;;;;;;8.30;6.20;;;12.20;99.90;;;;;;5040537;28;20940;-45
2022/05/04 04:29:12;;;;;;;10.30;6.43;;;12.30;99.90;;;;;;5040571;28;20463;-44
2022/05/04 04:31:38;;;;;;;11.93;6.83;;;12.30;99.90;;;;;;5040043;28;20503;-41
2022/05/04 04:34:07;;;;;;;12.70;6.60;;;12.40;99.90;;;;;;5041037;28;20473;-40
2022/05/04 04:36:34;;;;;;;17.30;7.10;;;12.50;99.90;;;;;;5040778;28;20559;-43
2022/05/04 04:39:00;;;;;;;9.77;6.03;;;12.50;99.90;;;;;;5040649;28;20451;-43
2022/05/04 04:41:27;;;;;;;14.30;6.27;;;12.60;99.90;;;;;;5040924;28;20510;-46
2022/05/04 04:43:54;;;;;;;10.80;8.13;;;12.70;99.90;;;;;;5040983;28;20472;-45
2022/05/04 04:46:24;;;;;;;13.53;6.00;;;12.70;99.90;;;;;;5040075;28;20456;-45
2022/05/04 04:48:52;;;;;;;9.10;5.80;;;12.80;99.90;;;;;;5039681;28;20482;-43
2022/05/04 04:51:19;;;;;;;16.77;7.47;;;12.90;99.90;;;;;;5040109;28;20451;-44
2022/05/04 04:53:46;;;;;;;10.50;6.43;;;13.00;99.90;;;;;;5039386;28;20468;-45
2022/05/04 04:56:13;;;;;;;11.37;6.67;;;13.10;99.90;;;;;;5040621;28;20472;-46
2022/05/04 04:58:44;;;;;;;15.33;6.67;;;13.10;99.90;;;;;;5039545;28;20444;-45
2022/05/04 05:01:10;;;;;;;9.13;6.83;;;13.20;99.90;;;;;;5039951;28;20444;-43
2022/05/04 05:03:38;;;;;;;10.23;5.30;;;13.30;99.90;;;;;;5039852;28;20484;-46
2022/05/04 05:06:05;;;;;;;11.43;5.90;;;13.40;99.90;;;;;;5039258;28;20476;-42
2022/05/04 05:08:32;;;;;;;10.37;6.20;;;13.40;99.90;;;;;;5039813;28;20455;-44
2022/05/04 05:10:58;;;;;;;11.90;7.03;;;13.50;99.90;;;;;;5040723;28;20476;-43
2022/05/04 05:13:25;;;;;;;9.27;6.80;;;13.50;99.90;;;;;;5041141;28;20428;-44
2022/05/04 05:16:09;;;;;;;14.80;6.53;;;13.60;99.90;;;;;;5040789;28;20488;-40
2022/05/04 05:18:38;;;;;;;8.87;6.20;;;13.60;99.90;;;;;;5040914;28;20432;-38
2022/05/04 05:21:05;;;;;;;8.53;6.87;;;13.70;99.90;;;;;;5040935;28;20468;-45
2022/05/04 05:23:32;;;;;;;10.90;7.07;;;13.80;99.90;;;;;;5041016;28;20452;-41
2022/05/04 05:25:59;;;;;;;8.13;6.07;;;13.80;99.90;;;;;;5040900;28;20451;-45
2022/05/04 05:28:25;;;;;;;8.87;6.97;;;13.90;99.90;;;;;;5040241;28;20475;-39
2022/05/04 05:30:52;;;;;;;13.20;7.07;;;13.90;99.90;;;;;;5039591;28;20940;-40
2022/05/04 05:33:19;;;;;;;8.00;6.10;;;14.00;99.90;;;;;;5040028;28;20534;-48
2022/05/04 05:35:47;;;;;;;6.10;5.50;;;14.10;99.90;;;;;;5039713;28;20538;-41
2022/05/04 05:38:14;;;;;;;14.60;7.13;;;14.20;99.90;;;;;;5039698;28;20451;-40
2022/05/04 05:40:43;;;;;;;16.77;8.13;;;14.20;99.90;;;;;;5039781;28;20448;-42
2022/05/04 05:43:10;;;;;;;9.80;7.13;;;14.30;99.90;;;;;;5039849;28;20786;-39
2022/05/04 05:45:37;;;;;;;11.47;7.60;;;14.30;99.90;;;;;;5040128;28;20464;-41
2022/05/04 05:48:04;;;;;;;9.53;6.00;;;14.40;99.90;;;;;;5039965;28;20448;-42
2022/05/04 05:50:33;;;;;;;10.23;7.17;;;14.40;99.90;;;;;;5040029;28;20483;-37
2022/05/04 05:53:02;;;;;;;16.40;7.00;;;14.40;99.90;;;;;;5040053;28;20555;-41
2022/05/04 05:55:29;;;;;;;11.23;7.47;;;14.50;99.90;;;;;;5039364;28;20527;-40
2022/05/04 05:57:56;;;;;;;8.57;7.73;;;14.50;99.90;;;;;;5039339;28;20533;-40
2022/05/04 06:00:25;;;;;;;14.93;9.17;;;14.50;99.90;;;;;;5039514;28;20451;-41
2022/05/04 06:02:52;;;;;;;11.07;9.00;;;14.60;99.90;;;;;;5039756;28;20458;-38
2022/05/04 06:05:18;;;;;;;8.43;6.60;;;14.50;99.90;;;;;;5039645;28;20447;-41
2022/05/04 06:07:45;;;;;;;7.60;5.77;;;14.50;99.90;;;;;;5039144;28;20499;-47
2022/05/04 06:10:13;;;;;;;7.80;6.50;;;14.60;99.90;;;;;;5038596;28;20957;-40
2022/05/04 06:12:40;;;;;;;7.47;6.33;;;14.60;99.90;;;;;;5038316;28;20484;-38
2022/05/04 06:15:09;;;;;;;8.50;7.60;;;14.70;99.90;;;;;;5039267;28;20476;-41
2022/05/04 06:17:35;;;;;;;10.67;7.20;;;14.70;99.90;;;;;;5038891;28;20964;-38
2022/05/04 06:20:03;;;;;;;11.67;7.20;;;14.80;99.90;;;;;;5039493;28;20498;-40
2022/05/04 06:22:30;;;;;;;14.53;6.23;;;15.00;99.90;;;;;;5039682;28;20870;-40
2022/05/04 06:24:57;;;;;;;10.00;6.30;;;15.10;99.90;;;;;;5039300;28;20452;-39
2022/05/04 06:27:25;;;;;;;9.03;7.40;;;15.10;99.90;;;;;;5029689;28;21049;-40
2022/05/04 06:35:20;;;;;;;9.80;6.00;;;15.40;99.90;;;;;;5038546;28;20563;-44
2022/05/04 06:37:46;;;;;;;8.50;6.17;;;15.40;99.90;;;;;;5035160;28;20437;-39
2022/05/04 06:40:16;;;;;;;8.27;5.90;;;15.50;99.90;;;;;;5028301;28;20468;-39
2022/05/04 06:42:46;;;;;;;9.97;5.73;;;15.60;99.90;;;;;;5019521;28;20515;-44
2022/05/04 06:45:13;;;;;;;8.27;6.23;;;15.60;99.90;;;;;;5040307;28;20464;-39
2022/05/04 06:47:40;;;;;;;10.63;6.30;;;15.70;99.90;;;;;;5045036;28;20440;-39
2022/05/04 06:50:07;;;;;;;10.43;6.97;;;15.70;99.90;;;;;;5044510;28;20591;-41
2022/05/04 06:52:34;;;;;;;13.30;6.90;;;15.70;99.90;;;;;;5044563;28;20471;-43
2022/05/04 06:55:01;;;;;;;7.80;6.07;;;15.80;99.90;;;;;;5044371;28;20498;-41
2022/05/04 06:57:27;;;;;;;13.93;6.23;;;15.90;99.90;;;;;;5040642;28;20467;-38
2022/05/04 06:59:55;;;;;;;8.20;6.07;;;15.90;99.90;;;;;;5043868;28;20457;-39
2022/05/04 07:02:22;;;;;;;8.90;6.47;;;15.90;99.90;;;;;;5060449;28;20448;-38
2022/05/04 07:04:49;;;;;;;10.53;7.33;;;16.00;99.90;;;;;;5074114;28;20465;-43
2022/05/04 07:07:15;;;;;;;12.77;6.87;;;15.90;99.90;;;;;;5068592;28;20467;-38
2022/05/04 07:09:42;;;;;;;9.40;7.60;;;15.90;99.90;;;;;;5053170;28;20715;-36
2022/05/04 07:12:09;;;;;;;9.90;6.50;;;16.00;99.90;;;;;;5037035;28;20456;-36
2022/05/04 07:14:38;;;;;;;9.97;6.60;;;16.10;99.90;;;;;;5033505;28;20829;-36
2022/05/04 07:17:08;;;;;;;14.30;6.70;;;16.10;99.90;;;;;;5033206;28;20476;-37
2022/05/04 07:19:38;;;;;;;12.77;7.03;;;16.20;99.90;;;;;;5034141;28;20477;-37
2022/05/04 07:22:06;;;;;;;15.37;7.00;;;16.20;99.90;;;;;;5033800;28;20539;-35
2022/05/04 07:24:32;;;;;;;13.93;6.40;;;16.40;99.90;;;;;;5033999;28;20440;-38
2022/05/04 07:26:59;;;;;;;12.60;6.90;;;16.50;99.90;;;;;;5033381;28;20465;-37
2022/05/04 07:29:26;;;;;;;8.90;7.30;;;16.60;99.90;;;;;;5033908;28;20928;-38
2022/05/04 07:31:52;;;;;;;8.00;5.50;;;16.80;99.90;;;;;;5033276;28;20453;-35
2022/05/04 07:34:20;;;;;;;6.70;5.37;;;16.90;99.90;;;;;;5033564;28;20500;-37
2022/05/04 07:36:48;;;;;;;9.47;5.37;;;17.00;99.90;;;;;;5034452;28;20445;-38
2022/05/04 07:42:21;;;;;;;8.97;6.60;;;17.10;99.90;;;;;;5034287;28;20456;-37
2022/05/04 07:44:46;;;;;;;12.93;6.80;;;17.70;99.90;;;;;;5036823;28;20488;-38
2022/05/04 07:47:13;;;;;;;8.60;6.20;;;18.30;99.90;;;;;;5037468;28;20475;-37
2022/05/04 07:49:42;;;;;;;8.20;5.80;;;19.00;99.90;;;;;;5036981;28;20421;-34
2022/05/04 07:52:09;;;;;;;10.33;6.17;;;20.10;99.80;;;;;;5038612;28;20495;-35
2022/05/04 07:54:36;;;;;;;5.57;4.77;;;21.70;96.70;;;;;;5037979;28;20464;-40
2022/05/04 07:57:02;;;;;;;10.10;6.57;;;23.40;90.70;;;;;;5037560;28;20503;-37
2022/05/04 07:59:29;;;;;;;13.33;6.57;;;24.60;82.10;;;;;;5038195;28;20445;-36
2022/05/04 08:04:41;;;;;;;5.30;4.17;;;27.00;65.00;;;;;;5038028;28;20546;-43
2022/05/04 08:07:08;;;;;;;4.20;3.80;;;27.80;58.00;;;;;;5037117;28;20477;-38
2022/05/04 08:09:36;;;;;;;6.57;3.93;;;28.30;54.40;;;;;;5037390;28;20476;-45
2022/05/04 08:12:06;;;;;;;4.90;4.50;;;28.80;52.20;;;;;;5037973;28;20480;-40
2022/05/04 08:14:32;;;;;;;6.30;4.30;;;29.30;49.70;;;;;;5036894;28;20473;-36
2022/05/04 08:16:59;;;;;;;8.77;5.23;;;29.70;48.40;;;;;;5036743;28;20452;-37
2022/05/04 08:19:26;;;;;;;5.80;5.30;;;29.70;47.30;;;;;;5036427;28;20496;-35
2022/05/04 08:21:56;;;;;;;7.10;5.33;;;29.60;47.40;;;;;;5036585;28;20460;-40
2022/05/04 08:24:23;;;;;;;7.17;5.00;;;29.50;47.70;;;;;;5036931;28;20445;-38
2022/05/04 08:26:50;;;;;;;5.23;4.73;;;29.60;47.10;;;;;;5036625;28;20449;-37
2022/05/04 08:29:17;;;;;;;5.07;4.53;;;29.30;45.90;;;;;;5036841;28;20423;-38
2022/05/04 08:31:44;;;;;;;5.70;4.80;;;29.20;45.60;;;;;;5036439;28;20503;-36
2022/05/04 08:34:11;;;;;;;4.70;4.20;;;29.40;44.90;;;;;;5036454;28;20460;-40
2022/05/04 08:36:37;;;;;;;4.97;4.43;;;29.20;44.90;;;;;;5036583;28;20508;-37
2022/05/04 08:39:06;;;;;;;8.50;4.83;;;28.90;44.80;;;;;;5036874;28;20442;-38
2022/05/04 08:41:36;;;;;;;4.00;3.70;;;28.90;45.30;;;;;;5036764;28;20504;-38
2022/05/04 08:44:04;;;;;;;6.10;4.50;;;29.00;45.40;;;;;;5036157;28;20465;-37
2022/05/04 08:46:34;;;;;;;6.57;4.50;;;29.00;44.80;;;;;;5036334;28;20460;-35
2022/05/04 08:49:03;;;;;;;6.23;4.10;;;28.90;44.40;;;;;;5036375;28;20457;-42
2022/05/04 08:51:31;;;;;;;12.50;5.40;;;28.80;44.70;;;;;;5036880;28;20450;-35
2022/05/04 08:53:58;;;;;;;8.43;5.07;;;28.50;44.90;;;;;;5036201;28;20461;-35
2022/05/04 08:56:26;;;;;;;4.50;3.73;;;28.30;45.30;;;;;;5036239;28;20477;-39
2022/05/04 08:58:53;;;;;;;5.20;4.23;;;28.00;46.30;;;;;;5036093;28;20444;-39
2022/05/04 09:01:20;;;;;;;6.83;5.13;;;27.50;46.50;;;;;;5036232;28;20513;-40
2022/05/04 09:03:47;;;;;;;6.30;5.70;;;27.10;47.30;;;;;;5036388;28;20507;-39
2022/05/04 09:06:25;;;;;;;5.37;4.77;;;27.00;47.60;;;;;;5036359;28;20459;-34
2022/05/04 09:08:57;;;;;;;6.97;4.20;;;27.30;48.00;;;;;;5036478;28;20444;-40
2022/05/04 09:11:24;;;;;;;5.87;4.60;;;27.50;48.20;;;;;;5036238;28;20457;-40
2022/05/04 09:13:53;;;;;;;7.00;4.80;;;27.50;48.50;;;;;;5036435;28;20453;-38
2022/05/04 09:16:31;;;;;;;10.03;4.57;;;27.30;47.90;;;;;;5036326;28;20484;-35
2022/05/04 09:19:01;;;;;;;5.00;4.50;;;27.20;48.30;;;;;;5036178;28;20461;-38
2022/05/04 09:21:30;;;;;;;4.43;4.03;;;27.20;48.20;;;;;;5036356;28;20457;-44
2022/05/04 09:23:57;;;;;;;6.13;3.87;;;27.30;47.60;;;;;;5036361;28;20457;-42
2022/05/04 09:26:24;;;;;;;4.37;3.93;;;27.00;47.50;;;;;;5035808;28;20510;-47
2022/05/04 09:28:58;;;;;;;5.50;4.00;;;26.60;48.50;;;;;;5035759;28;20464;-37
2022/05/04 09:31:26;;;;;;;6.70;4.30;;;25.90;48.80;;;;;;5035582;28;20413;-37
2022/05/04 09:33:58;;;;;;;8.10;5.60;;;25.30;50.60;;;;;;5035178;28;20460;-38
2022/05/04 09:36:35;;;;;;;7.60;4.63;;;24.60;51.40;;;;;;5035585;28;20515;-32
2022/05/04 09:45:11;;;;;;;6.03;4.93;;;22.60;54.20;;;;;;5035236;28;20433;-39
2022/05/04 09:47:39;;;;;;;6.30;4.53;;;22.10;54.80;;;;;;5035036;28;20493;-34
2022/05/04 09:50:06;;;;;;;5.57;3.83;;;22.00;55.40;;;;;;5034832;28;20451;-37
2022/05/04 09:52:42;;;;;;;5.00;4.50;;;21.80;56.60;;;;;;5043066;28;20439;-36
2022/05/04 09:55:17;;;;;;;6.80;5.00;;;21.70;57.00;;;;;;5074925;28;20477;-38
2022/05/04 09:57:44;;;;;;;6.40;3.87;;;21.80;56.50;;;;;;5075296;28;20543;-39
2022/05/04 10:00:14;;;;;;;5.23;3.87;;;22.10;56.70;;;;;;5074770;28;20443;-38
2022/05/04 10:02:44;;;;;;;6.90;4.57;;;22.40;56.40;;;;;;5075188;28;20462;-39
2022/05/04 10:05:11;;;;;;;5.10;4.60;;;22.60;55.50;;;;;;5075522;28;20435;-38
2022/05/04 10:07:38;;;;;;;5.13;4.60;;;22.70;55.60;;;;;;5075836;28;20443;-34
2022/05/04 10:10:07;;;;;;;5.40;4.57;;;22.70;55.60;;;;;;5075903;28;20435;-41
2022/05/04 10:12:39;;;;;;;6.47;5.27;;;22.60;55.80;;;;;;5075926;28;20438;-40
2022/05/04 10:15:10;;;;;;;5.00;4.50;;;22.50;55.90;;;;;;5075117;28;20424;-35
2022/05/04 10:17:44;;;;;;;6.80;4.77;;;22.50;56.30;;;;;;5076043;28;20428;-38
2022/05/04 10:20:19;;;;;;;5.67;4.07;;;22.40;56.70;;;;;;5075530;28;20493;-39
2022/05/04 10:22:54;;;;;;;4.30;3.90;;;22.10;56.40;;;;;;5075613;28;20466;-44
2022/05/04 10:25:23;;;;;;;4.50;4.00;;;21.90;56.80;;;;;;5075073;28;20466;-38
2022/05/04 10:27:50;;;;;;;5.90;3.33;;;21.80;57.00;;;;;;5074940;28;20511;-40
2022/05/04 10:30:30;;;;;;;4.33;3.23;;;21.70;57.60;;;;;;5075321;28;20474;-45
2022/05/04 10:33:02;;;;;;;4.67;3.50;;;21.80;58.70;;;;;;5074229;28;20439;-33
2022/05/04 10:35:33;;;;;;;4.10;3.50;;;21.70;57.70;;;;;;5075331;28;20531;-41
2022/05/04 10:38:15;;;;;;;5.93;3.90;;;21.80;58.40;;;;;;5075015;28;20512;-35
2022/05/04 10:40:50;;;;;;;4.27;3.87;;;21.70;58.40;;;;;;5074947;28;20500;-36
2022/05/04 10:43:18;;;;;;;4.80;4.27;;;21.60;58.20;;;;;;5075741;28;20539;-35
2022/05/04 10:45:46;;;;;;;5.63;4.47;;;21.50;57.60;;;;;;5074924;28;20452;-37
2022/05/04 10:48:29;;;;;;;4.87;4.20;;;21.40;57.90;;;;;;5074724;28;20467;-40
2022/05/04 10:51:05;;;;;;;6.07;5.20;;;21.30;58.40;;;;;;5074697;28;20450;-40
2022/05/04 10:53:38;;;;;;;4.47;3.97;;;21.20;58.60;;;;;;5074534;28;20466;-39
2022/05/04 10:56:07;;;;;;;8.33;5.20;;;21.10;58.70;;;;;;5074512;28;20527;-37
2022/05/04 10:58:36;;;;;;;5.97;4.50;;;21.00;59.10;;;;;;5074922;28;20467;-39
2022/05/04 11:01:11;;;;;;;5.97;3.93;;;20.90;59.50;;;;;;5074281;28;20447;-43
2022/05/04 11:03:51;;;;;;;6.03;4.67;;;20.80;60.40;;;;;;5075367;28;20432;-39
2022/05/04 11:06:26;;;;;;;14.50;5.70;;;20.80;59.70;;;;;;5075937;28;20463;-43
2022/05/04 11:08:56;;;;;;;5.40;4.90;;;20.70;59.50;;;;;;5075293;28;20507;-41
2022/05/04 11:11:24;;;;;;;4.10;3.70;;;20.60;60.30;;;;;;5075267;28;20451;-40
2022/05/04 11:13:51;;;;;;;4.83;4.13;;;20.60;60.70;;;;;;5074774;28;20443;-40
2022/05/04 11:16:19;;;;;;;9.00;3.67;;;20.70;61.00;;;;;;5074898;28;20467;-41
2022/05/04 11:18:49;;;;;;;5.10;4.20;;;20.70;59.80;;;;;;5078181;28;20447;-42
2022/05/04 11:21:17;;;;;;;5.23;3.67;;;20.80;60.20;;;;;;5079002;28;20594;-40
2022/05/04 11:23:49;;;;;;;8.73;4.87;;;21.10;60.60;;;;;;5079380;28;20474;-35
2022/05/04 11:26:23;;;;;;;5.33;3.90;;;21.40;59.30;;;;;;5078997;28;20452;-41
2022/05/04 11:28:51;;;;;;;6.30;4.20;;;21.60;59.00;;;;;;5078566;28;20467;-45
2022/05/04 11:31:18;;;;;;;5.43;4.27;;;21.70;59.80;;;;;;5078879;28;20508;-40
2022/05/04 11:33:47;;;;;;;6.83;3.93;;;21.80;59.20;;;;;;5078338;28;20819;-40
2022/05/04 11:36:18;;;;;;;5.63;4.47;;;21.80;58.70;;;;;;5078688;28;20466;-43
2022/05/04 11:38:46;;;;;;;4.90;4.30;;;21.70;59.20;;;;;;5077989;28;20430;-46
2022/05/04 11:41:20;;;;;;;6.53;4.67;;;21.70;59.20;;;;;;5078230;28;20443;-41
2022/05/04 11:43:50;;;;;;;5.57;4.37;;;21.70;59.20;;;;;;5078106;28;20432;-36
2022/05/04 11:46:18;;;;;;;5.40;4.17;;;21.60;59.10;;;;;;5077672;28;20493;-40
2022/05/04 11:48:48;;;;;;;4.90;3.90;;;21.50;59.80;;;;;;5077432;28;20443;-39
2022/05/04 11:51:17;;;;;;;5.47;4.53;;;21.40;59.10;;;;;;5077667;28;20447;-37
2022/05/04 11:53:45;;;;;;;5.10;4.60;;;21.30;59.80;;;;;;5078178;28;20453;-37
2022/05/04 11:56:16;;;;;;;6.47;3.90;;;21.30;60.00;;;;;;5077972;28;20720;-42
2022/05/04 11:58:43;;;;;;;6.63;4.93;;;21.20;60.80;;;;;;5077823;28;20425;-38
2022/05/04 12:01:13;;;;;;;9.23;4.60;;;21.20;60.50;;;;;;5077515;28;20514;-36
2022/05/04 12:03:40;;;;;;;6.50;4.40;;;21.30;59.80;;;;;;5077909;28;20431;-37
2022/05/04 12:06:11;;;;;;;5.77;4.20;;;21.40;59.20;;;;;;5077761;28;20435;-40
2022/05/04 12:08:39;;;;;;;5.70;4.70;;;21.30;59.00;;;;;;5077061;28;20459;-42
2022/05/04 12:11:08;;;;;;;8.37;4.77;;;21.40;58.90;;;;;;5078088;28;20508;-38
2022/05/04 12:13:37;;;;;;;5.70;4.13;;;21.30;58.80;;;;;;5077649;28;20501;-40
2022/05/04 12:16:06;;;;;;;7.10;4.70;;;21.30;59.50;;;;;;5077710;28;20475;-46
2022/05/04 12:18:35;;;;;;;4.80;3.97;;;21.30;59.70;;;;;;5077941;28;20439;-43
2022/05/04 12:21:06;;;;;;;7.40;5.23;;;21.30;59.00;;;;;;5077098;28;20455;-40
2022/05/04 12:23:35;;;;;;;6.47;5.27;;;21.20;57.90;;;;;;5077076;28;20431;-40
2022/05/04 12:26:02;;;;;;;9.13;5.90;;;21.20;58.60;;;;;;5078038;28;20439;-40
2022/05/04 12:28:30;;;;;;;6.70;5.20;;;21.10;58.90;;;;;;5077431;28;20436;-38
2022/05/04 12:33:42;;;;;;;4.47;4.00;;;21.00;59.70;;;;;;5078237;28;20411;-36
2022/05/04 12:36:12;;;;;;;7.60;3.83;;;21.10;60.30;;;;;;5077463;28;20483;-38
2022/05/04 12:38:46;;;;;;;4.57;4.17;;;21.10;60.30;;;;;;5077007;28;20412;-39
2022/05/04 12:41:17;;;;;;;7.27;4.67;;;21.20;61.40;;;;;;5077255;28;20452;-35
2022/05/04 12:43:45;;;;;;;5.70;4.57;;;21.30;60.80;;;;;;5076903;28;20423;-41
2022/05/04 12:46:15;;;;;;;4.87;4.20;;;21.50;59.80;;;;;;5077559;28;20450;-38
2022/05/04 12:48:43;;;;;;;6.50;4.37;;;21.70;59.20;;;;;;5077428;28;20474;-38
2022/05/04 12:51:11;;;;;;;8.10;5.30;;;21.80;59.10;;;;;;5077395;28;20495;-37
2022/05/04 12:53:40;;;;;;;7.20;5.00;;;21.90;58.90;;;;;;5076676;28;20459;-39
2022/05/04 12:58:52;;;;;;;4.87;4.40;;;21.70;58.80;;;;;;5077357;28;20515;-39
2022/05/04 13:01:22;;;;;;;7.03;4.70;;;21.60;58.40;;;;;;5047899;28;20479;-46
2022/05/04 13:03:50;;;;;;;4.93;4.53;;;21.40;58.60;;;;;;5037154;28;20441;-42
2022/05/04 13:06:17;;;;;;;7.33;4.53;;;21.30;59.00;;;;;;5037047;28;20445;-40
2022/05/04 13:08:46;;;;;;;4.90;4.27;;;21.20;59.40;;;;;;5037119;28;20438;-38
2022/05/04 13:11:13;;;;;;;7.10;5.00;;;21.20;59.80;;;;;;5036463;28;20489;-41
2022/05/04 13:13:40;;;;;;;4.90;4.40;;;21.20;59.50;;;;;;5036342;28;20433;-36
2022/05/04 13:16:10;;;;;;;6.13;4.63;;;21.40;59.30;;;;;;5036391;28;20573;-37
2022/05/04 13:18:37;;;;;;;6.90;5.43;;;21.60;60.40;;;;;;5036467;28;20445;-42
2022/05/04 13:21:05;;;;;;;10.40;5.90;;;21.60;59.90;;;;;;5036005;28;20471;-42
2022/05/04 13:23:32;;;;;;;9.53;5.60;;;21.60;60.00;;;;;;5035979;28;20468;-37